N53JO GVAC-GCTS
Flight info
| Callsign | N53JO |
|---|---|
| Flight time | N/A |
| Altitude | 39000 |
| Route | DIMKI1A DIMKI B623 IPERA N873 LIMAL T770 URQUI |
| Aircraft | B762/H-SDFGIRWY/S |
Departure
| Time | 2026-04-24 18:58 |
|---|---|
| Airport | Amílcar Cabral International Airport (GVAC) |
Arrival
| Time | N/A |
|---|---|
| Airport | Tenerife Sur Airport (GCTS) |
| Time | Latitude | Longitude | Altitude | Speed | Heading |
|---|---|---|---|---|---|
| 2026-04-24 18:54 | 16.73005 | -22.94689 | 193 ft | 11 kts | 188° |
| 2026-04-24 18:55 | 16.72824 | -22.94691 | 189 ft | 13 kts | 180° |
| 2026-04-24 18:55 | 16.72731 | -22.94690 | 187 ft | 14 kts | 179° |
| 2026-04-24 18:55 | 16.72635 | -22.94689 | 190 ft | 14 kts | 179° |
| 2026-04-24 18:56 | 16.72538 | -22.94688 | 190 ft | 14 kts | 180° |
| 2026-04-24 18:56 | 16.72477 | -22.94688 | 188 ft | 11 kts | 180° |
| 2026-04-24 18:56 | 16.72416 | -22.94713 | 190 ft | 5 kts | 253° |
| 2026-04-24 18:56 | 16.72408 | -22.94766 | 190 ft | 8 kts | 269° |
| 2026-04-24 18:57 | 16.72408 | -22.94832 | 189 ft | 10 kts | 269° |
| 2026-04-24 18:57 | 16.72432 | -22.94882 | 189 ft | 8 kts | 345° |
| 2026-04-24 18:57 | 16.72473 | -22.94886 | 190 ft | 9 kts | 359° |
| 2026-04-24 18:57 | 16.72790 | -22.94889 | 190 ft | 86 kts | 0° |
| 2026-04-24 18:58 | 16.73705 | -22.94897 | 264 ft | 168 kts | 4° |
| 2026-04-24 18:58 | 16.74935 | -22.94896 | 1215 ft | 182 kts | 2° |
| 2026-04-24 18:58 | 16.76153 | -22.94899 | 2042 ft | 180 kts | 1° |
| 2026-04-24 18:58 | 16.77449 | -22.94914 | 2862 ft | 190 kts | 360° |
| 2026-04-24 18:59 | 16.78823 | -22.94935 | 3584 ft | 205 kts | 359° |
| 2026-04-24 18:59 | 16.80295 | -22.94945 | 4293 ft | 218 kts | 358° |
| 2026-04-24 18:59 | 16.81317 | -22.94951 | 4768 ft | 226 kts | 357° |
| 2026-04-24 18:59 | 16.82938 | -22.94965 | 5454 ft | 240 kts | 356° |
| 2026-04-24 19:00 | 16.84663 | -22.94978 | 6196 ft | 255 kts | 356° |
| 2026-04-24 19:00 | 16.86487 | -22.94989 | 6925 ft | 269 kts | 355° |
| 2026-04-24 19:00 | 16.88401 | -22.95002 | 7668 ft | 282 kts | 356° |
| 2026-04-24 19:00 | 16.91023 | -22.94404 | 8647 ft | 304 kts | 19° |
| 2026-04-24 19:01 | 16.92343 | -22.93781 | 9154 ft | 312 kts | 22° |
| 2026-04-24 19:01 | 16.94303 | -22.92728 | 9913 ft | 322 kts | 25° |
| 2026-04-24 19:01 | 16.96301 | -22.91589 | 10603 ft | 331 kts | 26° |
| 2026-04-24 19:01 | 16.98335 | -22.90398 | 11305 ft | 339 kts | 26° |
| 2026-04-24 19:02 | 17.00378 | -22.89109 | 11962 ft | 349 kts | 31° |
| 2026-04-24 19:02 | 17.02393 | -22.87628 | 12578 ft | 359 kts | 33° |
| 2026-04-24 19:02 | 17.04430 | -22.86127 | 13209 ft | 366 kts | 32° |
| 2026-04-24 19:02 | 17.06552 | -22.84599 | 13852 ft | 373 kts | 32° |
| 2026-04-24 19:03 | 17.08713 | -22.83046 | 14427 ft | 380 kts | 32° |
| 2026-04-24 19:03 | 17.10947 | -22.81435 | 15021 ft | 400 kts | 32° |
| 2026-04-24 19:03 | 17.13291 | -22.79739 | 15625 ft | 418 kts | 32° |
| 2026-04-24 19:03 | 17.15724 | -22.77976 | 16240 ft | 433 kts | 32° |
| 2026-04-24 19:04 | 17.18240 | -22.76157 | 16861 ft | 446 kts | 32° |
| 2026-04-24 19:04 | 17.20821 | -22.74289 | 17485 ft | 457 kts | 32° |
| 2026-04-24 19:04 | 17.23418 | -22.72410 | 18240 ft | 459 kts | 32° |
| 2026-04-24 19:04 | 17.26056 | -22.70500 | 18498 ft | 462 kts | 32° |
| 2026-04-24 19:05 | 17.28703 | -22.68581 | 18801 ft | 463 kts | 32° |
| 2026-04-24 19:05 | 17.31357 | -22.66660 | 19094 ft | 464 kts | 32° |
| 2026-04-24 19:05 | 17.34015 | -22.64733 | 19363 ft | 466 kts | 32° |
| 2026-04-24 19:05 | 17.36686 | -22.62796 | 19629 ft | 467 kts | 32° |
| 2026-04-24 19:06 | 17.39365 | -22.60855 | 19886 ft | 469 kts | 32° |
| 2026-04-24 19:06 | 17.42052 | -22.58904 | 20139 ft | 470 kts | 32° |
| 2026-04-24 19:06 | 17.44745 | -22.56949 | 20362 ft | 473 kts | 31° |
| 2026-04-24 19:06 | 17.47456 | -22.54982 | 20598 ft | 474 kts | 31° |
| 2026-04-24 19:07 | 17.50169 | -22.53011 | 20850 ft | 475 kts | 31° |
| 2026-04-24 19:07 | 17.52894 | -22.51030 | 21064 ft | 477 kts | 31° |
| 2026-04-24 19:07 | 17.55628 | -22.49044 | 21293 ft | 478 kts | 31° |
| 2026-04-24 19:07 | 17.58363 | -22.47055 | 21504 ft | 480 kts | 31° |
| 2026-04-24 19:08 | 17.61107 | -22.45058 | 21723 ft | 481 kts | 31° |
| 2026-04-24 19:08 | 17.63822 | -22.43083 | 21904 ft | 482 kts | 31° |
| 2026-04-24 19:08 | 17.66583 | -22.41072 | 22095 ft | 483 kts | 31° |
| 2026-04-24 19:08 | 17.69347 | -22.39059 | 22284 ft | 485 kts | 31° |
| 2026-04-24 19:09 | 17.72126 | -22.37035 | 22457 ft | 486 kts | 31° |
| 2026-04-24 19:09 | 17.74906 | -22.35009 | 22644 ft | 487 kts | 30° |
| 2026-04-24 19:09 | 17.77691 | -22.32978 | 22812 ft | 488 kts | 30° |
| 2026-04-24 19:09 | 17.80482 | -22.30942 | 22967 ft | 489 kts | 30° |
| 2026-04-24 19:10 | 17.83272 | -22.28907 | 23203 ft | 489 kts | 30° |
| 2026-04-24 19:10 | 17.86064 | -22.26875 | 23450 ft | 487 kts | 29° |
| 2026-04-24 19:10 | 17.88892 | -22.24911 | 23678 ft | 486 kts | 28° |
| 2026-04-24 19:10 | 17.91821 | -22.23198 | 23876 ft | 480 kts | 21° |
| 2026-04-24 19:11 | 17.94801 | -22.21615 | 24083 ft | 480 kts | 22° |
| 2026-04-24 19:11 | 17.97768 | -22.20006 | 24289 ft | 480 kts | 22° |
| 2026-04-24 19:11 | 18.00733 | -22.18407 | 24489 ft | 479 kts | 22° |
| 2026-04-24 19:11 | 18.03696 | -22.16807 | 24701 ft | 479 kts | 22° |
| 2026-04-24 19:12 | 18.06656 | -22.15208 | 24922 ft | 478 kts | 22° |
| 2026-04-24 19:12 | 18.09615 | -22.13608 | 25133 ft | 478 kts | 22° |
| 2026-04-24 19:12 | 18.12536 | -22.12027 | 25346 ft | 477 kts | 22° |
| 2026-04-24 19:12 | 18.15486 | -22.10430 | 25567 ft | 477 kts | 22° |
| 2026-04-24 19:13 | 18.17479 | -22.09351 | 25714 ft | 477 kts | 21° |
| 2026-04-24 19:13 | 18.21386 | -22.07236 | 26004 ft | 476 kts | 21° |
| 2026-04-24 19:13 | 18.24331 | -22.05639 | 26225 ft | 476 kts | 21° |
| 2026-04-24 19:13 | 18.27275 | -22.04043 | 26448 ft | 476 kts | 21° |
| 2026-04-24 19:14 | 18.30220 | -22.02446 | 26668 ft | 475 kts | 21° |
| 2026-04-24 19:14 | 18.33158 | -22.00852 | 26902 ft | 475 kts | 21° |
| 2026-04-24 19:14 | 18.36103 | -21.99253 | 27129 ft | 474 kts | 21° |
| 2026-04-24 19:14 | 18.38999 | -21.97680 | 27360 ft | 474 kts | 21° |
| 2026-04-24 19:15 | 18.41928 | -21.96090 | 27597 ft | 473 kts | 21° |
| 2026-04-24 19:15 | 18.44854 | -21.94500 | 27824 ft | 473 kts | 21° |
| 2026-04-24 19:15 | 18.47787 | -21.92905 | 28075 ft | 472 kts | 21° |
| 2026-04-24 19:15 | 18.50703 | -21.91319 | 28313 ft | 472 kts | 21° |
| 2026-04-24 19:16 | 18.56540 | -21.88144 | 28799 ft | 471 kts | 21° |
| 2026-04-24 19:16 | 18.59450 | -21.86560 | 29051 ft | 471 kts | 21° |
| 2026-04-24 19:16 | 18.62358 | -21.84976 | 29293 ft | 470 kts | 21° |
| 2026-04-24 19:17 | 18.65259 | -21.83395 | 29542 ft | 469 kts | 21° |
| 2026-04-24 19:17 | 18.68159 | -21.81814 | 29793 ft | 469 kts | 21° |
| 2026-04-24 19:17 | 18.71054 | -21.80236 | 30065 ft | 468 kts | 21° |
| 2026-04-24 19:17 | 18.73906 | -21.78680 | 30262 ft | 467 kts | 21° |
| 2026-04-24 19:18 | 18.76820 | -21.77092 | 30496 ft | 475 kts | 21° |
| 2026-04-24 19:18 | 18.79788 | -21.75472 | 30728 ft | 484 kts | 21° |
| 2026-04-24 19:18 | 18.82804 | -21.73822 | 30978 ft | 492 kts | 21° |
| 2026-04-24 19:18 | 18.85869 | -21.72148 | 31208 ft | 499 kts | 21° |
| 2026-04-24 19:19 | 18.88974 | -21.70452 | 31434 ft | 506 kts | 21° |
| 2026-04-24 19:19 | 18.92123 | -21.68728 | 31661 ft | 512 kts | 21° |
| 2026-04-24 19:19 | 18.95308 | -21.66986 | 31889 ft | 518 kts | 21° |
| 2026-04-24 19:19 | 18.98525 | -21.65226 | 32120 ft | 523 kts | 21° |
| 2026-04-24 19:20 | 19.01769 | -21.63449 | 32344 ft | 528 kts | 21° |
| 2026-04-24 19:20 | 19.05045 | -21.61654 | 32575 ft | 532 kts | 21° |
| 2026-04-24 19:20 | 19.08341 | -21.59848 | 32807 ft | 536 kts | 21° |
| 2026-04-24 19:20 | 19.11663 | -21.58027 | 33047 ft | 539 kts | 21° |
| 2026-04-24 19:21 | 19.14992 | -21.56201 | 33303 ft | 539 kts | 21° |
| 2026-04-24 19:21 | 19.18278 | -21.54396 | 33534 ft | 538 kts | 20° |
| 2026-04-24 19:21 | 19.21597 | -21.52576 | 33766 ft | 537 kts | 20° |
| 2026-04-24 19:21 | 19.24910 | -21.50756 | 34002 ft | 536 kts | 20° |
| 2026-04-24 19:22 | 19.27111 | -21.49546 | 34154 ft | 535 kts | 20° |
| 2026-04-24 19:22 | 19.31526 | -21.47119 | 34441 ft | 535 kts | 20° |
| 2026-04-24 19:22 | 19.34824 | -21.45306 | 34656 ft | 534 kts | 20° |
| 2026-04-24 19:22 | 19.38134 | -21.43484 | 34876 ft | 534 kts | 20° |
| 2026-04-24 19:23 | 19.41434 | -21.41668 | 35102 ft | 534 kts | 20° |
| 2026-04-24 19:23 | 19.44690 | -21.39874 | 35310 ft | 533 kts | 20° |
| 2026-04-24 19:23 | 19.47979 | -21.38061 | 35535 ft | 533 kts | 20° |
| 2026-04-24 19:23 | 19.51271 | -21.36246 | 35780 ft | 532 kts | 20° |
| 2026-04-24 19:24 | 19.54552 | -21.34437 | 36007 ft | 532 kts | 20° |
| 2026-04-24 19:24 | 19.57833 | -21.32627 | 36243 ft | 531 kts | 20° |
| 2026-04-24 19:24 | 19.61090 | -21.30827 | 36478 ft | 524 kts | 20° |
| 2026-04-24 19:24 | 19.64307 | -21.29050 | 36691 ft | 519 kts | 20° |
| 2026-04-24 19:25 | 19.67492 | -21.27292 | 36927 ft | 513 kts | 20° |
| 2026-04-24 19:25 | 19.70640 | -21.25552 | 37172 ft | 508 kts | 20° |
| 2026-04-24 19:25 | 19.73761 | -21.23825 | 37394 ft | 503 kts | 20° |
| 2026-04-24 19:25 | 19.76861 | -21.22112 | 37401 ft | 504 kts | 20° |
| 2026-04-24 19:26 | 19.83100 | -21.18656 | 37308 ft | 507 kts | 20° |
| 2026-04-24 19:26 | 19.89367 | -21.15184 | 37201 ft | 510 kts | 20° |
| 2026-04-24 19:27 | 19.95665 | -21.11689 | 37209 ft | 511 kts | 20° |
| 2026-04-24 19:27 | 20.01957 | -21.08198 | 37116 ft | 516 kts | 20° |
| 2026-04-24 19:28 | 20.08351 | -21.04643 | 37042 ft | 519 kts | 20° |
| 2026-04-24 19:28 | 20.14776 | -21.01070 | 37040 ft | 521 kts | 20° |
| 2026-04-24 19:29 | 20.24433 | -20.95693 | 37049 ft | 523 kts | 20° |
| 2026-04-24 19:30 | 20.30895 | -20.92090 | 37041 ft | 524 kts | 20° |
| 2026-04-24 19:30 | 20.37329 | -20.88500 | 37041 ft | 525 kts | 20° |
| 2026-04-24 19:31 | 20.43805 | -20.84883 | 37045 ft | 526 kts | 20° |
| 2026-04-24 19:31 | 20.50295 | -20.81254 | 37064 ft | 527 kts | 20° |
| 2026-04-24 19:32 | 20.56797 | -20.77616 | 37051 ft | 528 kts | 20° |
| 2026-04-24 19:32 | 20.63304 | -20.73970 | 37040 ft | 528 kts | 20° |
| 2026-04-24 19:33 | 20.69814 | -20.70320 | 37050 ft | 529 kts | 20° |
| 2026-04-24 19:33 | 20.76324 | -20.66666 | 37051 ft | 529 kts | 20° |
| 2026-04-24 19:34 | 20.82840 | -20.63006 | 37048 ft | 529 kts | 20° |
| 2026-04-24 19:34 | 20.89360 | -20.59339 | 37053 ft | 530 kts | 20° |
| 2026-04-24 19:35 | 20.95882 | -20.55667 | 37051 ft | 530 kts | 20° |
| 2026-04-24 19:35 | 21.02401 | -20.51994 | 37048 ft | 530 kts | 20° |
| 2026-04-24 19:36 | 21.08922 | -20.48316 | 37052 ft | 530 kts | 20° |
| 2026-04-24 19:36 | 21.15400 | -20.44658 | 37056 ft | 530 kts | 20° |
| 2026-04-24 19:37 | 21.21928 | -20.40968 | 37063 ft | 530 kts | 20° |
| 2026-04-24 19:37 | 21.28454 | -20.37276 | 37055 ft | 530 kts | 20° |
| 2026-04-24 19:38 | 21.34981 | -20.33581 | 37054 ft | 530 kts | 20° |
| 2026-04-24 19:38 | 21.41502 | -20.29883 | 37053 ft | 530 kts | 20° |
| 2026-04-24 19:39 | 21.48004 | -20.26191 | 37046 ft | 520 kts | 20° |
| 2026-04-24 19:39 | 21.51142 | -20.24405 | 37063 ft | 501 kts | 19° |
| 2026-04-24 19:39 | 21.54182 | -20.22682 | 37039 ft | 489 kts | 19° |
| 2026-04-24 19:40 | 21.60219 | -20.19257 | 37073 ft | 494 kts | 19° |
| 2026-04-24 19:40 | 21.66336 | -20.15771 | 37068 ft | 500 kts | 19° |
| 2026-04-24 19:41 | 21.72485 | -20.12268 | 37092 ft | 506 kts | 19° |
| 2026-04-24 19:41 | 21.78735 | -20.08703 | 37070 ft | 510 kts | 19° |
| 2026-04-24 19:42 | 21.84961 | -20.05148 | 37073 ft | 503 kts | 19° |
| 2026-04-24 19:42 | 21.91160 | -20.01610 | 37062 ft | 504 kts | 19° |
| 2026-04-24 19:43 | 21.97371 | -19.98055 | 37056 ft | 506 kts | 19° |
| 2026-04-24 19:43 | 22.03589 | -19.94496 | 37055 ft | 504 kts | 19° |
| 2026-04-24 19:44 | 22.09781 | -19.90948 | 37056 ft | 504 kts | 19° |
| 2026-04-24 19:44 | 22.15951 | -19.87408 | 37058 ft | 505 kts | 19° |
| 2026-04-24 19:45 | 22.22164 | -19.83840 | 37070 ft | 506 kts | 19° |
| 2026-04-24 19:45 | 22.28370 | -19.80273 | 37061 ft | 505 kts | 19° |
| 2026-04-24 19:46 | 22.34575 | -19.76703 | 37065 ft | 506 kts | 19° |
| 2026-04-24 19:46 | 22.40795 | -19.73120 | 37063 ft | 507 kts | 19° |
| 2026-04-24 19:47 | 22.45961 | -19.70141 | 37059 ft | 506 kts | 19° |
| 2026-04-24 19:47 | 22.52165 | -19.66562 | 37079 ft | 505 kts | 19° |
| 2026-04-24 19:48 | 22.59387 | -19.62390 | 37063 ft | 507 kts | 19° |
| 2026-04-24 19:48 | 22.67663 | -19.57602 | 37063 ft | 505 kts | 19° |
| 2026-04-24 19:49 | 22.80142 | -19.50379 | 35728 ft | 526 kts | 19° |
| 2026-04-24 19:50 | 22.90035 | -19.44629 | 34614 ft | 539 kts | 19° |
| 2026-04-24 19:50 | 22.93301 | -19.42730 | 34432 ft | 540 kts | 19° |
| 2026-04-24 19:51 | 22.99930 | -19.38874 | 34061 ft | 541 kts | 19° |
| 2026-04-24 19:51 | 23.03247 | -19.36943 | 33862 ft | 541 kts | 19° |
| 2026-04-24 19:52 | 23.09903 | -19.33083 | 33512 ft | 542 kts | 20° |
| 2026-04-24 19:52 | 23.13227 | -19.31151 | 33455 ft | 542 kts | 19° |
| 2026-04-24 19:52 | 23.19888 | -19.27280 | 33316 ft | 542 kts | 20° |
| 2026-04-24 19:53 | 23.26549 | -19.23404 | 33167 ft | 543 kts | 20° |
| 2026-04-24 19:54 | 23.36518 | -19.17595 | 33078 ft | 540 kts | 20° |
| 2026-04-24 19:54 | 23.43087 | -19.13760 | 33080 ft | 538 kts | 20° |
| 2026-04-24 19:55 | 23.48608 | -19.10537 | 33080 ft | 537 kts | 20° |
| 2026-04-24 19:55 | 23.56246 | -19.06067 | 33081 ft | 535 kts | 20° |
| 2026-04-24 19:56 | 23.62797 | -19.02232 | 33080 ft | 534 kts | 20° |
| 2026-04-24 19:56 | 23.69328 | -18.98403 | 33081 ft | 532 kts | 20° |
| 2026-04-24 19:57 | 23.75847 | -18.94577 | 33080 ft | 532 kts | 20° |
| 2026-04-24 19:57 | 23.82359 | -18.90751 | 33110 ft | 531 kts | 20° |
| 2026-04-24 19:58 | 23.88862 | -18.86924 | 33091 ft | 530 kts | 20° |
| 2026-04-24 19:58 | 23.95315 | -18.83124 | 33088 ft | 530 kts | 20° |
| 2026-04-24 19:59 | 24.01800 | -18.79301 | 33088 ft | 529 kts | 20° |
| 2026-04-24 19:59 | 24.08287 | -18.75470 | 33077 ft | 529 kts | 20° |
| 2026-04-24 20:00 | 24.14758 | -18.71647 | 33116 ft | 528 kts | 20° |
| 2026-04-24 20:00 | 24.21229 | -18.67818 | 33100 ft | 528 kts | 20° |
| 2026-04-24 20:01 | 24.27694 | -18.63988 | 33090 ft | 528 kts | 20° |
| 2026-04-24 20:01 | 24.34150 | -18.60160 | 33086 ft | 527 kts | 20° |
| 2026-04-24 20:02 | 24.39511 | -18.56977 | 33096 ft | 527 kts | 20° |
| 2026-04-24 20:02 | 24.47046 | -18.52498 | 33096 ft | 526 kts | 20° |
| 2026-04-24 20:03 | 24.53454 | -18.48684 | 33101 ft | 526 kts | 21° |
| 2026-04-24 20:03 | 24.59892 | -18.44848 | 33096 ft | 526 kts | 21° |
| 2026-04-24 20:04 | 24.66332 | -18.41006 | 33100 ft | 526 kts | 21° |
| 2026-04-24 20:04 | 24.69538 | -18.39090 | 33205 ft | 525 kts | 21° |
| 2026-04-24 20:04 | 24.72752 | -18.37173 | 32966 ft | 528 kts | 21° |
| 2026-04-24 20:04 | 24.76027 | -18.35222 | 31753 ft | 542 kts | 22° |
| 2026-04-24 20:05 | 24.79335 | -18.33233 | 30960 ft | 540 kts | 22° |
| 2026-04-24 20:05 | 24.82626 | -18.31265 | 30197 ft | 534 kts | 23° |
| 2026-04-24 20:05 | 24.85870 | -18.29322 | 29237 ft | 528 kts | 24° |
| 2026-04-24 20:05 | 24.89084 | -18.27396 | 28308 ft | 523 kts | 24° |
| 2026-04-24 20:06 | 24.92263 | -18.25491 | 27575 ft | 514 kts | 24° |
| 2026-04-24 20:06 | 24.95360 | -18.23630 | 27071 ft | 501 kts | 24° |
| 2026-04-24 20:06 | 24.98347 | -18.21839 | 26573 ft | 489 kts | 24° |
| 2026-04-24 20:06 | 25.01300 | -18.20066 | 26075 ft | 478 kts | 24° |
| 2026-04-24 20:07 | 25.03261 | -18.18888 | 25755 ft | 472 kts | 24° |
| 2026-04-24 20:07 | 25.07012 | -18.16632 | 25356 ft | 454 kts | 24° |
| 2026-04-24 20:07 | 25.09748 | -18.14986 | 25055 ft | 442 kts | 24° |
| 2026-04-24 20:07 | 25.12417 | -18.13381 | 24788 ft | 431 kts | 24° |
| 2026-04-24 20:08 | 25.15024 | -18.11811 | 24494 ft | 421 kts | 25° |
| 2026-04-24 20:08 | 25.17567 | -18.10279 | 24218 ft | 412 kts | 25° |
| 2026-04-24 20:08 | 25.20058 | -18.08777 | 23944 ft | 404 kts | 24° |
| 2026-04-24 20:08 | 25.22501 | -18.07303 | 23668 ft | 396 kts | 24° |
| 2026-04-24 20:09 | 25.24894 | -18.05860 | 23355 ft | 388 kts | 25° |
| 2026-04-24 20:09 | 25.27244 | -18.04442 | 23037 ft | 381 kts | 25° |
| 2026-04-24 20:09 | 25.29584 | -18.03030 | 22737 ft | 392 kts | 25° |
| 2026-04-24 20:09 | 25.32039 | -18.01551 | 22479 ft | 411 kts | 25° |
| 2026-04-24 20:10 | 25.34603 | -17.99997 | 22208 ft | 429 kts | 25° |
| 2026-04-24 20:10 | 25.37263 | -17.98385 | 21922 ft | 442 kts | 26° |
| 2026-04-24 20:10 | 25.39992 | -17.96734 | 21630 ft | 451 kts | 26° |
| 2026-04-24 20:10 | 25.42773 | -17.95051 | 21332 ft | 459 kts | 26° |